Time;durP1;ratioP1;P1;durP2;ratioP2;P2;SDS_P1;SDS_P2;PMS_P1;PMS_P2;Temp;Humidity;BMP_temperature;BMP_pressure;BME280_temperature;BME280_humidity;BME280_pressure;Samples;Min_cycle;Max_cycle;Signal;HPM_P1;HPM_P2
2023/09/07 00:01:14;;;;;;;5.57;5.10;;;26.50;84.60;;;;;;4986232;28;20484;-67
2023/09/07 00:03:40;;;;;;;5.00;4.60;;;26.50;84.60;;;;;;4985776;28;20444;-67
2023/09/07 00:06:07;;;;;;;5.40;5.00;;;26.50;84.60;;;;;;4985874;28;20428;-67
2023/09/07 00:08:33;;;;;;;5.00;4.60;;;26.50;84.60;;;;;;4985996;28;20835;-67
2023/09/07 00:11:06;;;;;;;6.37;4.80;;;26.50;84.50;;;;;;5002494;28;20983;-67
2023/09/07 00:13:33;;;;;;;5.33;4.93;;;26.40;84.40;;;;;;4953454;28;20460;-67
2023/09/07 00:16:03;;;;;;;4.80;4.40;;;26.40;84.50;;;;;;4966316;28;21261;-67
2023/09/07 00:18:32;;;;;;;5.40;4.90;;;26.40;84.40;;;;;;4983966;28;20452;-68
2023/09/07 00:21:01;;;;;;;5.03;4.50;;;26.40;84.50;;;;;;4983922;28;20469;-68
2023/09/07 00:23:30;;;;;;;4.97;4.57;;;26.30;84.40;;;;;;4966285;28;20541;-67
2023/09/07 00:25:56;;;;;;;6.23;4.90;;;26.40;84.50;;;;;;4945581;28;20846;-67
2023/09/07 00:28:25;;;;;;;4.70;4.40;;;26.30;84.30;;;;;;4966435;28;20456;-67
2023/09/07 00:30:52;;;;;;;5.20;4.80;;;26.30;84.40;;;;;;4968091;28;20862;-67
2023/09/07 00:33:23;;;;;;;4.93;4.50;;;26.30;84.30;;;;;;4985726;28;20514;-67
2023/09/07 00:35:49;;;;;;;6.47;4.90;;;26.30;84.30;;;;;;4986135;28;20443;-67
2023/09/07 00:38:20;;;;;;;4.90;4.40;;;26.30;84.40;;;;;;4968992;28;20827;-68
2023/09/07 00:40:45;;;;;;;5.60;5.10;;;26.20;84.30;;;;;;4983065;28;20469;-67
2023/09/07 00:43:14;;;;;;;6.93;5.00;;;26.20;84.30;;;;;;4965770;28;20429;-68
2023/09/07 00:45:42;;;;;;;5.07;4.63;;;26.20;84.30;;;;;;4950241;28;20409;-67
2023/09/07 00:48:20;;;;;;;5.60;4.70;;;26.20;84.30;;;;;;4950331;28;21032;-67
2023/09/07 00:50:47;;;;;;;4.87;4.47;;;26.20;84.20;;;;;;4982500;28;20461;-67
2023/09/07 00:53:14;;;;;;;4.07;3.77;;;26.10;84.20;;;;;;4950555;28;20506;-67
2023/09/07 00:55:45;;;;;;;5.10;4.43;;;26.10;84.20;;;;;;4966264;28;21056;-67
2023/09/07 00:58:12;;;;;;;6.10;4.27;;;26.10;84.20;;;;;;4950155;28;20448;-68
2023/09/07 01:00:39;;;;;;;5.10;4.70;;;26.10;84.10;;;;;;4956385;28;20476;-68
2023/09/07 01:03:05;;;;;;;4.57;4.27;;;26.10;84.10;;;;;;5035862;22;20511;-72
2023/09/07 01:05:40;;;;;;;5.20;4.73;;;26.10;84.10;;;;;;4987578;28;20421;-72
2023/09/07 01:08:17;;;;;;;5.13;4.60;;;26.00;84.00;;;;;;4986551;28;20440;-72
2023/09/07 01:10:43;;;;;;;4.40;4.10;;;26.10;84.10;;;;;;4986776;28;21117;-72
2023/09/07 01:13:09;;;;;;;5.07;4.67;;;26.00;84.00;;;;;;4985985;28;20479;-72
2023/09/07 01:15:38;;;;;;;5.33;4.83;;;26.00;84.00;;;;;;4985932;28;21023;-72
2023/09/07 01:18:11;;;;;;;6.37;4.40;;;26.00;84.00;;;;;;4985737;28;20440;-72
2023/09/07 01:20:42;;;;;;;4.67;4.10;;;26.00;84.00;;;;;;4985878;28;20443;-72
2023/09/07 01:23:09;;;;;;;4.53;4.00;;;25.90;83.90;;;;;;4973548;28;20425;-72
2023/09/07 01:25:36;;;;;;;4.80;4.40;;;25.90;83.80;;;;;;4983379;28;20539;-72
2023/09/07 01:28:04;;;;;;;4.97;4.57;;;25.90;83.80;;;;;;4984580;28;20465;-72
2023/09/07 01:30:32;;;;;;;4.53;4.13;;;25.90;83.80;;;;;;4983324;28;20416;-72
2023/09/07 01:32:57;;;;;;;4.90;4.50;;;25.90;83.80;;;;;;4970349;28;20439;-72
2023/09/07 01:35:30;;;;;;;5.03;4.50;;;25.90;83.90;;;;;;5003414;28;20428;-72
2023/09/07 01:37:56;;;;;;;4.93;4.43;;;25.80;83.80;;;;;;4977988;28;20494;-71
2023/09/07 01:40:25;;;;;;;5.43;4.50;;;25.80;83.70;;;;;;4954875;28;20464;-71
2023/09/07 01:42:53;;;;;;;4.47;4.17;;;25.80;83.70;;;;;;4987059;28;20551;-72
2023/09/07 01:45:22;;;;;;;4.80;4.40;;;25.80;83.80;;;;;;5003526;28;20400;-71
2023/09/07 01:47:48;;;;;;;4.90;4.47;;;25.80;83.80;;;;;;4976830;28;20463;-72
2023/09/07 01:50:14;;;;;;;6.30;4.87;;;25.70;83.60;;;;;;4980837;28;20463;-72
2023/09/07 01:52:47;;;;;;;5.00;4.60;;;25.70;83.60;;;;;;4970376;28;20736;-72
2023/09/07 01:55:16;;;;;;;5.30;4.80;;;25.70;83.60;;;;;;4986872;28;20432;-72
2023/09/07 01:57:42;;;;;;;5.60;5.10;;;25.70;83.60;;;;;;4968299;28;20630;-72
2023/09/07 02:00:09;;;;;;;5.10;4.60;;;25.70;83.50;;;;;;4964575;28;20445;-72
2023/09/07 02:02:42;;;;;;;4.80;4.40;;;25.70;83.60;;;;;;4987584;28;20441;-72
2023/09/07 02:05:10;;;;;;;4.83;4.43;;;25.70;83.50;;;;;;4990470;28;20843;-72
2023/09/07 02:07:36;;;;;;;4.60;4.20;;;25.60;83.40;;;;;;4981497;28;20452;-72
2023/09/07 02:10:05;;;;;;;5.80;5.30;;;25.60;83.40;;;;;;4954332;28;20472;-71
2023/09/07 02:12:34;;;;;;;6.40;4.93;;;25.60;83.40;;;;;;4969731;28;20420;-71
2023/09/07 02:15:04;;;;;;;4.77;4.40;;;25.60;83.30;;;;;;4986247;28;20425;-72
2023/09/07 02:17:32;;;;;;;4.40;3.83;;;25.50;83.30;;;;;;4954236;28;20449;-72
2023/09/07 02:20:00;;;;;;;5.90;5.40;;;25.50;83.30;;;;;;4960550;28;20467;-72
2023/09/07 02:22:26;;;;;;;3.93;3.73;;;25.50;83.30;;;;;;4989485;28;20407;-72
2023/09/07 02:24:52;;;;;;;4.80;4.40;;;25.50;83.30;;;;;;4970887;28;20453;-72
2023/09/07 02:27:18;;;;;;;4.77;4.37;;;25.50;83.30;;;;;;4976013;28;20804;-72
2023/09/07 02:29:47;;;;;;;5.87;4.30;;;25.50;83.30;;;;;;4968724;28;20421;-71
2023/09/07 02:32:14;;;;;;;4.23;3.93;;;25.40;83.10;;;;;;4970544;28;20965;-72
2023/09/07 02:34:43;;;;;;;4.60;4.20;;;25.40;83.20;;;;;;4969767;28;20437;-71
2023/09/07 02:37:14;;;;;;;4.60;4.30;;;25.40;83.20;;;;;;4974679;28;20522;-72
2023/09/07 02:39:40;;;;;;;4.40;4.00;;;25.40;83.10;;;;;;4988684;28;20419;-71
2023/09/07 02:42:09;;;;;;;4.50;4.10;;;25.40;83.20;;;;;;4976667;28;20417;-71
2023/09/07 02:44:38;;;;;;;4.67;4.37;;;25.40;83.20;;;;;;4969959;28;20437;-72
2023/09/07 02:47:07;;;;;;;7.10;4.80;;;25.30;83.10;;;;;;4970457;28;20408;-72
2023/09/07 02:49:36;;;;;;;4.70;4.30;;;25.30;83.10;;;;;;4970147;28;20484;-72
2023/09/07 02:52:02;;;;;;;5.03;4.63;;;25.30;83.10;;;;;;4969947;28;20409;-71
2023/09/07 02:54:29;;;;;;;4.50;4.20;;;25.30;83.10;;;;;;4969455;28;21251;-72
2023/09/07 02:56:55;;;;;;;4.60;4.20;;;25.30;83.10;;;;;;4986981;28;20409;-72
2023/09/07 02:59:23;;;;;;;5.60;4.20;;;25.20;83.00;;;;;;4969290;28;20439;-72
2023/09/07 03:01:51;;;;;;;4.43;4.13;;;25.20;83.00;;;;;;4952868;28;20934;-72
2023/09/07 03:04:20;;;;;;;4.57;4.07;;;25.20;83.00;;;;;;4936631;28;20526;-72
2023/09/07 03:06:51;;;;;;;5.83;4.50;;;25.20;83.00;;;;;;4969263;28;20464;-71
2023/09/07 03:09:23;;;;;;;4.80;4.30;;;25.20;83.00;;;;;;4974042;28;20472;-72
2023/09/07 03:11:50;;;;;;;5.10;4.60;;;25.20;83.10;;;;;;4980018;28;20439;-71
2023/09/07 03:14:16;;;;;;;5.27;4.20;;;25.20;83.10;;;;;;4985141;28;20938;-72
2023/09/07 03:16:44;;;;;;;5.20;4.80;;;25.20;83.00;;;;;;4969029;28;20467;-72
2023/09/07 03:19:10;;;;;;;4.67;4.27;;;25.10;82.90;;;;;;4955006;28;20464;-71
2023/09/07 03:21:37;;;;;;;5.00;4.60;;;25.10;82.90;;;;;;4971912;28;20505;-71
2023/09/07 03:24:06;;;;;;;4.43;4.10;;;25.10;83.00;;;;;;4972184;28;20427;-71
2023/09/07 03:26:32;;;;;;;5.27;4.77;;;25.10;82.90;;;;;;4972549;28;21035;-72
2023/09/07 03:29:00;;;;;;;5.30;4.90;;;25.10;82.90;;;;;;4955444;28;20452;-72
2023/09/07 03:31:26;;;;;;;4.87;4.47;;;25.00;82.80;;;;;;4962605;28;20453;-72
2023/09/07 03:33:55;;;;;;;5.00;4.60;;;25.00;82.80;;;;;;4953476;28;20481;-72
2023/09/07 03:36:23;;;;;;;5.50;5.10;;;25.00;82.80;;;;;;4952543;28;20428;-72
2023/09/07 03:38:56;;;;;;;5.27;4.77;;;25.00;82.80;;;;;;4985348;28;20531;-72
2023/09/07 03:41:30;;;;;;;4.77;4.40;;;25.00;82.80;;;;;;4996959;28;20493;-72
2023/09/07 03:44:07;;;;;;;6.13;5.53;;;24.90;82.70;;;;;;4969216;28;20405;-72
2023/09/07 03:46:33;;;;;;;4.87;4.50;;;24.90;82.70;;;;;;4968686;28;20418;-72
2023/09/07 03:49:08;;;;;;;5.30;4.90;;;24.90;82.70;;;;;;4984681;28;20463;-71
2023/09/07 03:51:37;;;;;;;5.53;4.80;;;24.90;82.80;;;;;;4952866;28;20448;-72
2023/09/07 03:54:08;;;;;;;5.13;4.73;;;24.90;82.80;;;;;;4952577;28;20434;-72
2023/09/07 03:56:34;;;;;;;4.60;4.20;;;24.90;82.80;;;;;;4952799;28;20437;-71
2023/09/07 03:59:03;;;;;;;5.03;4.63;;;24.80;82.70;;;;;;4984446;28;20518;-71
2023/09/07 04:01:29;;;;;;;5.60;4.43;;;24.80;82.70;;;;;;4961444;28;20721;-72
2023/09/07 04:03:56;;;;;;;5.13;4.07;;;24.80;82.70;;;;;;4968426;28;20469;-71
2023/09/07 04:06:24;;;;;;;5.20;4.70;;;24.80;82.70;;;;;;4988081;28;20460;-72
2023/09/07 04:08:53;;;;;;;4.97;4.50;;;24.80;82.70;;;;;;4971663;28;20451;-72
2023/09/07 04:11:26;;;;;;;5.20;4.70;;;24.70;82.70;;;;;;4994410;28;21265;-72
2023/09/07 04:13:52;;;;;;;4.70;4.30;;;24.70;82.60;;;;;;4984307;28;20445;-71
2023/09/07 04:16:19;;;;;;;4.73;4.37;;;24.70;82.60;;;;;;4968823;28;20433;-71
2023/09/07 04:18:45;;;;;;;4.50;4.10;;;24.70;82.60;;;;;;4968646;28;20541;-71
2023/09/07 04:21:13;;;;;;;5.27;4.77;;;24.70;82.60;;;;;;4968445;28;20870;-72
2023/09/07 04:23:42;;;;;;;5.20;4.80;;;24.70;82.70;;;;;;4967927;28;20504;-71
2023/09/07 04:26:09;;;;;;;4.97;4.47;;;24.70;82.70;;;;;;4984726;28;20404;-71
2023/09/07 04:28:37;;;;;;;5.40;4.43;;;24.60;82.60;;;;;;4966896;28;20455;-72
2023/09/07 04:31:07;;;;;;;5.63;5.10;;;24.60;82.60;;;;;;4979827;28;20951;-72
2023/09/07 04:33:36;;;;;;;5.57;4.50;;;24.60;82.60;;;;;;4995392;28;20433;-71
2023/09/07 04:36:11;;;;;;;5.40;4.90;;;24.60;82.60;;;;;;4984932;28;20440;-72
2023/09/07 04:38:38;;;;;;;4.87;4.47;;;24.60;82.60;;;;;;4964443;28;20452;-71
2023/09/07 04:41:07;;;;;;;5.60;3.93;;;24.50;82.60;;;;;;4987183;28;20816;-71
2023/09/07 04:43:34;;;;;;;5.07;4.57;;;24.50;82.60;;;;;;4970643;28;20475;-71
2023/09/07 04:46:01;;;;;;;5.83;5.03;;;24.50;82.60;;;;;;4986445;28;20416;-71
2023/09/07 04:48:30;;;;;;;4.70;4.30;;;24.50;82.60;;;;;;4968909;28;20507;-71
2023/09/07 04:51:03;;;;;;;5.40;4.40;;;24.50;82.60;;;;;;4969122;28;20951;-71
2023/09/07 04:53:34;;;;;;;4.30;3.97;;;24.50;82.60;;;;;;4954035;28;21233;-71
2023/09/07 04:56:02;;;;;;;5.47;5.03;;;24.50;82.60;;;;;;4984463;28;20416;-71
2023/09/07 04:58:29;;;;;;;4.57;4.13;;;24.40;82.40;;;;;;4967860;28;20555;-71
2023/09/07 05:01:05;;;;;;;4.90;4.50;;;24.40;82.40;;;;;;4967833;28;20486;-71
2023/09/07 05:03:31;;;;;;;5.67;5.20;;;24.40;82.40;;;;;;4985234;28;20441;-71
2023/09/07 05:06:00;;;;;;;5.47;5.00;;;24.40;82.40;;;;;;4975320;28;20818;-71
2023/09/07 05:08:26;;;;;;;7.93;4.47;;;24.40;82.50;;;;;;4966263;28;20536;-71
2023/09/07 05:11:00;;;;;;;10.83;4.80;;;24.40;82.50;;;;;;4982767;28;20434;-70
2023/09/07 05:13:26;;;;;;;4.43;4.10;;;24.40;82.60;;;;;;4985081;28;20454;-71
2023/09/07 05:16:00;;;;;;;4.90;4.50;;;24.30;82.50;;;;;;4968985;28;20444;-71
2023/09/07 05:18:26;;;;;;;4.73;4.40;;;24.30;82.50;;;;;;4985195;28;20495;-71
2023/09/07 05:20:54;;;;;;;5.50;5.10;;;24.30;82.50;;;;;;4940379;28;21028;-72
2023/09/07 05:23:26;;;;;;;5.27;4.87;;;24.30;82.50;;;;;;4949459;28;20416;-71
2023/09/07 05:25:55;;;;;;;6.13;4.70;;;24.30;82.50;;;;;;4972128;28;20452;-71
2023/09/07 05:28:24;;;;;;;4.90;4.50;;;24.20;82.50;;;;;;4968340;28;20510;-74
2023/09/07 05:30:53;;;;;;;4.93;4.53;;;24.20;82.50;;;;;;4984312;28;20460;-71
2023/09/07 05:33:22;;;;;;;5.20;4.80;;;24.20;82.50;;;;;;4984681;28;20448;-75
2023/09/07 05:35:48;;;;;;;5.23;4.83;;;24.20;82.50;;;;;;4969151;28;20442;-74
2023/09/07 05:38:19;;;;;;;7.90;4.63;;;24.20;82.50;;;;;;4968208;28;21220;-74
2023/09/07 05:40:50;;;;;;;4.70;4.40;;;24.20;82.50;;;;;;4972356;28;20475;-74
2023/09/07 05:43:17;;;;;;;4.63;4.23;;;24.10;82.30;;;;;;4984408;28;21303;-74
2023/09/07 05:45:43;;;;;;;4.50;4.10;;;24.10;82.30;;;;;;4976675;28;20834;-74
2023/09/07 05:48:11;;;;;;;4.93;4.53;;;24.10;82.30;;;;;;4965601;28;20441;-75
2023/09/07 05:50:38;;;;;;;4.33;4.03;;;24.10;82.40;;;;;;4981817;28;21116;-74
2023/09/07 05:53:05;;;;;;;6.40;4.93;;;24.10;82.50;;;;;;4982475;28;21084;-74
2023/09/07 05:55:35;;;;;;;5.33;4.83;;;24.10;82.50;;;;;;4981519;28;21152;-74
2023/09/07 05:58:07;;;;;;;5.97;4.70;;;24.10;82.50;;;;;;4962548;28;20456;-75
2023/09/07 06:00:39;;;;;;;5.00;4.50;;;24.10;82.60;;;;;;4950926;28;20526;-74
2023/09/07 06:03:07;;;;;;;4.63;4.23;;;24.10;82.60;;;;;;4968875;28;20452;-74
2023/09/07 06:05:36;;;;;;;4.80;4.40;;;24.00;82.60;;;;;;4959635;28;20426;-74
2023/09/07 06:08:03;;;;;;;4.20;3.90;;;24.00;82.60;;;;;;4944389;28;20441;-74
2023/09/07 06:10:32;;;;;;;8.03;3.90;;;24.00;82.60;;;;;;4949386;28;20456;-74
2023/09/07 06:12:59;;;;;;;4.80;4.40;;;24.00;82.60;;;;;;4965720;28;20424;-74
2023/09/07 06:15:26;;;;;;;5.17;4.13;;;24.00;82.70;;;;;;4949080;28;21280;-74
2023/09/07 06:17:55;;;;;;;5.10;4.70;;;24.00;82.70;;;;;;4965380;28;20441;-75
2023/09/07 06:20:24;;;;;;;4.57;4.17;;;23.90;82.60;;;;;;4964393;28;20528;-74
2023/09/07 06:22:54;;;;;;;4.97;4.43;;;23.90;82.70;;;;;;4980832;28;20447;-74
2023/09/07 06:25:21;;;;;;;4.60;4.30;;;23.90;82.70;;;;;;4965207;28;20421;-74
2023/09/07 06:27:53;;;;;;;4.70;4.30;;;23.90;82.80;;;;;;4949794;28;20454;-74
2023/09/07 06:30:21;;;;;;;4.40;4.10;;;23.90;82.90;;;;;;4948553;28;20833;-74
2023/09/07 06:32:51;;;;;;;5.57;4.50;;;23.90;83.00;;;;;;4948057;28;20456;-74
2023/09/07 06:35:18;;;;;;;8.10;4.60;;;23.90;83.10;;;;;;4948328;28;20428;-74
2023/09/07 06:37:47;;;;;;;5.20;4.70;;;23.90;83.10;;;;;;4963149;28;21320;-74
2023/09/07 06:40:17;;;;;;;4.63;4.33;;;23.90;83.30;;;;;;4971737;28;21002;-74
2023/09/07 06:42:44;;;;;;;4.97;4.60;;;23.80;83.20;;;;;;4971836;28;20559;-74
2023/09/07 06:45:14;;;;;;;4.70;4.30;;;23.90;83.40;;;;;;4971611;28;20929;-74
2023/09/07 06:47:43;;;;;;;4.60;4.20;;;23.80;83.40;;;;;;4988037;28;20431;-74
2023/09/07 06:50:12;;;;;;;4.77;4.30;;;23.80;83.60;;;;;;4967581;28;20746;-74
2023/09/07 06:52:38;;;;;;;4.60;4.20;;;23.90;83.80;;;;;;4967111;28;20477;-74
2023/09/07 06:55:05;;;;;;;5.07;4.67;;;23.80;83.80;;;;;;4967173;28;20425;-74
2023/09/07 06:57:34;;;;;;;5.03;4.63;;;23.80;83.90;;;;;;4981414;28;20540;-74
2023/09/07 07:00:05;;;;;;;7.13;4.60;;;23.90;84.10;;;;;;4985469;28;20852;-74
2023/09/07 07:02:34;;;;;;;4.70;4.40;;;23.80;84.00;;;;;;4955174;28;20441;-72
2023/09/07 07:05:01;;;;;;;4.50;4.20;;;23.80;84.10;;;;;;4968610;28;20555;-75
2023/09/07 07:07:32;;;;;;;5.43;5.03;;;23.80;84.20;;;;;;4961240;28;20571;-73
2023/09/07 07:09:58;;;;;;;5.30;4.90;;;23.80;84.20;;;;;;4986659;28;20404;-75
2023/09/07 07:12:26;;;;;;;5.33;4.53;;;23.80;84.30;;;;;;4986959;28;21291;-75
2023/09/07 07:14:55;;;;;;;4.60;4.20;;;23.80;84.40;;;;;;4970822;28;20448;-75
2023/09/07 07:17:23;;;;;;;5.70;5.30;;;23.80;84.50;;;;;;4987377;28;20436;-75
2023/09/07 07:19:49;;;;;;;4.53;4.13;;;23.80;84.60;;;;;;4970641;28;20431;-75
2023/09/07 07:22:17;;;;;;;5.63;3.93;;;23.80;84.70;;;;;;4987086;28;20448;-75
2023/09/07 07:24:43;;;;;;;4.70;4.30;;;23.80;84.80;;;;;;4955138;28;21009;-75
2023/09/07 07:27:12;;;;;;;5.07;4.63;;;23.80;84.80;;;;;;4961992;28;20586;-75
2023/09/07 07:29:41;;;;;;;5.13;4.60;;;23.80;84.90;;;;;;4983668;28;20484;-75
2023/09/07 07:32:07;;;;;;;4.73;4.33;;;23.80;85.00;;;;;;4971171;28;21241;-75
2023/09/07 07:34:35;;;;;;;5.30;4.80;;;23.80;85.10;;;;;;4987145;28;20408;-75
2023/09/07 07:37:03;;;;;;;5.13;4.60;;;23.80;85.20;;;;;;4971418;28;20445;-75
2023/09/07 07:39:32;;;;;;;5.30;4.90;;;23.80;85.20;;;;;;4970845;28;20420;-75
2023/09/07 07:42:04;;;;;;;5.07;4.60;;;23.80;85.20;;;;;;4963863;28;20541;-76
2023/09/07 07:44:30;;;;;;;5.17;4.60;;;23.80;85.20;;;;;;4951434;28;20448;-76
2023/09/07 07:46:56;;;;;;;5.67;5.07;;;23.80;85.30;;;;;;4983060;28;20432;-75
2023/09/07 07:49:23;;;;;;;4.20;3.90;;;23.80;85.30;;;;;;4982961;28;20571;-74
2023/09/07 07:51:49;;;;;;;4.80;4.40;;;23.80;85.40;;;;;;4986863;28;21255;-75
2023/09/07 07:54:18;;;;;;;5.93;5.47;;;23.80;85.30;;;;;;4985967;28;20587;-75
2023/09/07 07:56:47;;;;;;;4.73;4.43;;;23.80;85.20;;;;;;4976007;28;20475;-75
2023/09/07 07:59:13;;;;;;;7.30;4.73;;;23.80;85.20;;;;;;4984906;28;21267;-75
2023/09/07 08:01:40;;;;;;;4.60;4.20;;;23.80;85.30;;;;;;4969610;28;20464;-75
2023/09/07 08:04:09;;;;;;;4.67;4.30;;;23.80;85.20;;;;;;4971214;28;20209;-75
2023/09/07 08:06:37;;;;;;;5.10;4.70;;;23.80;85.20;;;;;;4952388;28;20438;-75
2023/09/07 08:09:04;;;;;;;5.30;4.80;;;23.80;85.20;;;;;;4978269;28;20511;-76
2023/09/07 08:11:31;;;;;;;4.07;3.77;;;23.80;85.20;;;;;;4967813;28;20445;-74
2023/09/07 08:13:57;;;;;;;4.70;4.37;;;23.80;85.20;;;;;;4982145;28;20414;-77
2023/09/07 08:16:23;;;;;;;4.63;4.33;;;23.80;85.10;;;;;;4985521;28;20461;-76
2023/09/07 08:18:50;;;;;;;5.20;4.70;;;23.80;86.10;;;;;;4964352;28;20499;-75
2023/09/07 08:21:17;;;;;;;5.10;4.80;;;23.80;85.10;;;;;;4982964;28;20465;-75
2023/09/07 08:23:45;;;;;;;5.93;5.43;;;23.80;85.10;;;;;;4982608;28;20484;-75
2023/09/07 08:26:14;;;;;;;5.30;4.90;;;23.80;85.10;;;;;;4966523;28;20425;-75
2023/09/07 08:28:46;;;;;;;4.83;4.50;;;23.80;85.20;;;;;;4966652;28;20528;-75
2023/09/07 08:31:20;;;;;;;6.07;5.60;;;23.80;85.10;;;;;;4966756;28;21056;-75
2023/09/07 08:33:50;;;;;;;5.30;4.87;;;23.80;85.20;;;;;;4966708;28;20429;-75
2023/09/07 08:36:22;;;;;;;5.50;5.10;;;23.80;85.30;;;;;;4983338;28;20432;-75
2023/09/07 08:38:53;;;;;;;5.20;4.70;;;23.80;85.40;;;;;;4950249;28;20468;-75
2023/09/07 08:41:20;;;;;;;5.80;5.00;;;23.80;85.40;;;;;;4982231;28;20449;-75
2023/09/07 08:43:46;;;;;;;5.43;4.90;;;23.90;85.70;;;;;;4982501;28;20425;-76
2023/09/07 08:46:20;;;;;;;5.37;4.97;;;23.90;85.70;;;;;;4969143;28;21283;-76
2023/09/07 08:48:49;;;;;;;5.37;4.97;;;23.90;85.70;;;;;;4969850;28;20827;-75
2023/09/07 08:51:17;;;;;;;5.67;5.17;;;23.90;85.70;;;;;;4994751;28;20425;-75
2023/09/07 08:53:46;;;;;;;5.83;5.33;;;23.90;85.80;;;;;;4965957;28;20484;-75
2023/09/07 08:56:13;;;;;;;5.90;5.30;;;23.90;85.80;;;;;;4982296;28;20443;-74
2023/09/07 08:58:40;;;;;;;5.83;5.33;;;24.00;85.90;;;;;;4970213;28;20443;-76
2023/09/07 09:01:08;;;;;;;6.43;5.07;;;24.00;86.00;;;;;;4981558;28;20490;-75
2023/09/07 09:03:36;;;;;;;6.00;5.50;;;24.00;86.00;;;;;;4965755;28;20428;-75
2023/09/07 09:06:06;;;;;;;6.30;5.70;;;24.00;86.00;;;;;;4965874;28;20440;-75
2023/09/07 09:08:56;;;;;;;6.27;5.77;;;24.10;86.20;;;;;;4965315;28;20449;-76
2023/09/07 09:11:28;;;;;;;6.00;5.50;;;24.10;86.30;;;;;;5055659;22;20502;-75
2023/09/07 09:13:54;;;;;;;5.67;5.17;;;24.10;86.30;;;;;;4968746;28;20393;-75
2023/09/07 09:16:21;;;;;;;5.90;5.40;;;24.10;87.20;;;;;;5002745;28;20435;-75
2023/09/07 09:18:54;;;;;;;7.70;5.83;;;24.20;86.60;;;;;;4985577;28;20428;-75
2023/09/07 09:21:22;;;;;;;6.13;5.63;;;24.20;86.80;;;;;;4969328;28;20468;-75
2023/09/07 09:23:57;;;;;;;6.00;5.50;;;24.20;86.70;;;;;;5003767;28;20404;-75
2023/09/07 09:26:26;;;;;;;6.80;6.30;;;24.20;86.70;;;;;;5004393;28;20954;-75
2023/09/07 09:28:56;;;;;;;7.03;6.47;;;24.30;86.80;;;;;;5005377;28;20550;-75
2023/09/07 09:31:26;;;;;;;6.77;6.20;;;24.30;86.50;;;;;;4973965;28;20443;-75
2023/09/07 09:33:56;;;;;;;6.27;5.67;;;24.30;86.40;;;;;;4985387;28;20496;-75
2023/09/07 09:36:34;;;;;;;7.00;5.87;;;24.40;86.50;;;;;;4986816;28;20448;-76
2023/09/07 09:39:06;;;;;;;5.90;5.40;;;24.40;86.40;;;;;;4971026;28;20447;-75
2023/09/07 09:41:38;;;;;;;6.20;5.70;;;24.40;86.40;;;;;;4984743;28;20463;-75
2023/09/07 09:44:06;;;;;;;8.53;5.50;;;24.40;86.30;;;;;;4985009;28;20498;-75
2023/09/07 09:46:35;;;;;;;6.07;5.67;;;24.50;86.40;;;;;;5002832;28;20467;-75
2023/09/07 09:49:08;;;;;;;6.57;6.03;;;24.50;86.30;;;;;;4986559;28;20494;-75
2023/09/07 09:51:37;;;;;;;7.40;6.90;;;24.50;86.30;;;;;;4985893;28;20431;-75
2023/09/07 09:54:08;;;;;;;9.53;6.23;;;24.60;86.40;;;;;;4989863;28;20777;-75
2023/09/07 09:56:34;;;;;;;13.00;6.30;;;24.60;87.40;;;;;;4986555;28;20522;-74
2023/09/07 09:59:00;;;;;;;8.93;6.67;;;24.70;88.50;;;;;;5002927;28;20444;-75
2023/09/07 10:01:29;;;;;;;9.40;6.23;;;24.80;88.00;;;;;;4973299;28;20450;-75
2023/09/07 10:03:59;;;;;;;11.50;7.33;;;25.00;87.60;;;;;;5004667;28;20420;-75
2023/09/07 10:06:32;;;;;;;12.90;7.37;;;25.10;87.10;;;;;;5000156;28;20512;-75
2023/09/07 10:09:06;;;;;;;7.20;6.50;;;25.20;86.80;;;;;;4969183;28;20956;-75
2023/09/07 10:11:34;;;;;;;8.07;6.60;;;25.20;86.50;;;;;;5017828;28;20817;-76
2023/09/07 10:14:08;;;;;;;8.30;6.17;;;25.30;86.40;;;;;;4990622;28;20436;-75
2023/09/07 10:16:51;;;;;;;8.53;6.17;;;25.30;87.10;;;;;;4978532;28;20771;-75
2023/09/07 10:19:20;;;;;;;9.90;6.20;;;25.30;86.20;;;;;;5026410;28;20507;-77
2023/09/07 10:21:46;;;;;;;6.70;6.07;;;25.30;86.10;;;;;;5008351;28;20965;-76
2023/09/07 10:24:25;;;;;;;10.10;7.10;;;25.30;86.00;;;;;;4993183;28;20432;-76
2023/09/07 10:27:04;;;;;;;8.03;7.07;;;25.40;86.00;;;;;;5008236;28;20481;-76
2023/09/07 10:29:41;;;;;;;12.07;6.13;;;25.40;86.10;;;;;;5008710;28;20785;-76
2023/09/07 10:32:14;;;;;;;8.00;7.30;;;25.40;86.00;;;;;;5009190;28;20419;-75
2023/09/07 10:34:44;;;;;;;10.23;7.27;;;25.40;86.00;;;;;;5022062;28;20459;-77
2023/09/07 10:37:14;;;;;;;9.60;6.80;;;25.40;86.00;;;;;;5010953;28;20999;-75
2023/09/07 10:39:44;;;;;;;7.93;7.03;;;25.40;86.00;;;;;;4989177;28;20531;-74
2023/09/07 10:42:26;;;;;;;7.03;6.43;;;25.50;86.10;;;;;;4974872;28;20493;-74
2023/09/07 10:44:54;;;;;;;6.60;6.00;;;25.50;86.00;;;;;;4973836;28;20554;-75
2023/09/07 10:47:23;;;;;;;7.30;6.70;;;25.50;86.00;;;;;;4988572;28;20451;-75
2023/09/07 10:49:49;;;;;;;7.00;6.10;;;25.50;86.00;;;;;;5006022;28;20424;-75
2023/09/07 10:52:18;;;;;;;9.97;6.63;;;25.60;86.00;;;;;;4988079;28;20435;-74
2023/09/07 10:54:44;;;;;;;7.07;6.47;;;25.60;85.90;;;;;;4971901;28;21133;-75
2023/09/07 10:57:19;;;;;;;7.13;6.50;;;25.60;85.90;;;;;;4988070;28;20416;-74
2023/09/07 10:59:47;;;;;;;6.60;6.10;;;25.70;85.90;;;;;;5005784;28;20165;-74
2023/09/07 11:02:16;;;;;;;7.43;6.83;;;25.70;85.80;;;;;;4987745;28;20534;-74
2023/09/07 11:04:42;;;;;;;6.80;6.20;;;25.70;85.80;;;;;;4971646;28;20432;-74
2023/09/07 11:07:11;;;;;;;6.13;5.53;;;25.70;85.80;;;;;;5005088;28;20472;-74
2023/09/07 11:09:43;;;;;;;7.33;6.70;;;25.80;85.80;;;;;;5004673;28;20426;-74
2023/09/07 11:12:16;;;;;;;7.57;6.93;;;25.80;85.70;;;;;;5018133;28;20436;-74
2023/09/07 11:14:42;;;;;;;7.03;6.53;;;25.80;85.80;;;;;;5004976;28;20527;-74
2023/09/07 11:17:11;;;;;;;7.50;6.80;;;25.90;85.90;;;;;;5014620;28;20526;-75
2023/09/07 11:19:37;;;;;;;7.27;6.67;;;25.90;85.70;;;;;;4989411;28;20181;-74
2023/09/07 11:22:04;;;;;;;6.17;5.77;;;25.90;85.70;;;;;;5005642;28;20770;-74
2023/09/07 11:24:32;;;;;;;7.53;6.97;;;25.90;85.60;;;;;;4985889;28;20459;-74
2023/09/07 11:27:02;;;;;;;6.70;6.03;;;26.00;85.70;;;;;;4985128;28;20452;-74
2023/09/07 11:29:37;;;;;;;6.50;6.00;;;26.00;85.60;;;;;;4990648;28;20491;-74
2023/09/07 11:32:14;;;;;;;6.43;5.63;;;26.10;85.60;;;;;;4971881;28;20513;-74
2023/09/07 11:34:51;;;;;;;6.73;6.23;;;26.10;85.50;;;;;;4986880;28;20427;-75
2023/09/07 11:37:23;;;;;;;6.73;6.13;;;26.10;85.40;;;;;;4991764;28;20447;-75
2023/09/07 11:39:49;;;;;;;6.57;6.07;;;26.10;85.30;;;;;;4962265;28;20458;-74
2023/09/07 11:42:16;;;;;;;6.73;6.03;;;26.10;85.20;;;;;;4987459;28;20942;-74
2023/09/07 11:44:42;;;;;;;6.60;6.10;;;26.20;85.20;;;;;;4985582;28;21086;-74
2023/09/07 11:47:10;;;;;;;6.03;5.53;;;26.20;85.20;;;;;;4972318;28;20421;-75
2023/09/07 11:49:36;;;;;;;6.70;6.20;;;26.20;85.10;;;;;;5006230;28;20458;-75
2023/09/07 11:52:02;;;;;;;6.97;6.47;;;26.30;85.20;;;;;;4972740;28;20916;-75
2023/09/07 11:54:28;;;;;;;7.77;7.27;;;26.30;85.00;;;;;;4988946;28;20194;-74
2023/09/07 11:56:56;;;;;;;7.53;6.93;;;26.30;84.90;;;;;;5015572;28;20454;-74
2023/09/07 11:59:25;;;;;;;7.87;7.17;;;26.40;85.00;;;;;;4993780;28;20303;-74
2023/09/07 12:01:53;;;;;;;6.00;5.60;;;26.40;85.00;;;;;;4956878;28;21372;-74
2023/09/07 12:04:19;;;;;;;6.90;6.30;;;26.40;84.80;;;;;;5007028;28;20404;-74
2023/09/07 12:06:45;;;;;;;6.53;6.03;;;26.40;84.70;;;;;;4988979;28;20446;-75
2023/09/07 12:09:11;;;;;;;6.50;6.10;;;26.50;85.60;;;;;;4971028;28;20869;-74
2023/09/07 12:11:38;;;;;;;6.67;6.17;;;26.50;84.60;;;;;;5008551;28;20556;-74
2023/09/07 12:14:06;;;;;;;6.30;5.80;;;26.50;84.50;;;;;;5008802;28;21283;-74
2023/09/07 12:16:35;;;;;;;6.50;6.00;;;26.60;84.60;;;;;;4992764;28;20423;-74
2023/09/07 12:19:06;;;;;;;6.40;5.90;;;26.60;84.40;;;;;;4996035;28;20689;-75
2023/09/07 12:21:32;;;;;;;6.90;6.30;;;26.70;84.40;;;;;;4987339;28;20574;-75
2023/09/07 12:23:58;;;;;;;7.63;6.73;;;26.70;84.20;;;;;;5005785;28;20436;-75
2023/09/07 12:26:27;;;;;;;6.90;6.30;;;26.70;84.20;;;;;;4974070;28;20425;-75
2023/09/07 12:28:55;;;;;;;6.27;5.77;;;26.70;84.00;;;;;;4986384;28;20464;-75
2023/09/07 12:31:24;;;;;;;7.80;5.50;;;26.80;84.00;;;;;;5004106;28;20416;-75
2023/09/07 12:33:52;;;;;;;6.50;6.00;;;26.80;83.90;;;;;;4982685;28;20445;-75
2023/09/07 12:36:22;;;;;;;5.93;5.43;;;26.80;83.90;;;;;;5006422;28;20508;-75
2023/09/07 12:38:51;;;;;;;6.60;5.87;;;26.90;83.90;;;;;;4986056;28;20479;-75
2023/09/07 12:41:17;;;;;;;7.00;6.40;;;26.90;83.90;;;;;;5021222;28;20467;-75
2023/09/07 12:43:43;;;;;;;6.27;5.77;;;26.90;83.70;;;;;;5005461;28;20424;-75
2023/09/07 12:46:09;;;;;;;6.40;6.00;;;27.00;83.80;;;;;;5022944;28;21216;-75
2023/09/07 12:48:35;;;;;;;6.97;6.37;;;27.00;83.60;;;;;;4993409;28;20440;-75
2023/09/07 12:51:01;;;;;;;6.40;5.87;;;27.00;83.40;;;;;;4985595;28;20471;-75
2023/09/07 12:53:27;;;;;;;6.27;5.87;;;27.10;83.40;;;;;;4985633;28;20686;-75